Thunderstorms From: 15-12-2017 06:00 Until: 16-12-2017 06:00 warning for: Thunderstorms Level: Yellow info button

Although rather usual in this region, locally or potentially dangerous phenomena are expected. (such as local winds, summer thunderstorms, rising streams or high waves) Be aware and pay attention to the latest weather updates, especially if you carry out activities exposed to weather or close to a stream or shoreline. 


Meteo18 Weather Cam more information Meteo18 Weather Cam


warning for Thunderstorms more information blitzortung!


Rain radar more information rain snow radar


Visit our other weather sites:

Template documentation
and downloads

And another site



Weather Underground History page Text

Daily Summary for September 19, 2016 Units:  Metric    English   Both
« Previous Day
Next Day »
Daily Weekly Monthly Yearly Custom
  High: Low: Average:
Temperature: 19.6 °C 14.2 °C 16.4 °C
Dew Point: 14.9 °C 13.0 °C 13.7 °C
Humidity: 95 % 66 % 85 %
Wind Speed: 14.5 km/h 0.0 km/h 5 km/h
Wind Gust: 20.9 km/h - -
Wind:- - West
Pressure: 1020.5 hPa 1018.2 hPa -
Precipitation: 0.5 mm    
Historical Graphs
 
 
Tabular Data for September 19, 2016
Time Temperature Dew Point Pressure Wind Wind Speed Wind Gust Humidity Rainfall Rate (Hourly)
00:02 16.9 °C 14.7 °C 1018.5 hPa WNW 6.4 km/h 20.9 km/h 87 % 0.0 mm
00:07 16.9 °C 14.9 °C 1018.5 hPa NNW 11.3 km/h 20.9 km/h 88 % 0.0 mm
00:17 16.7 °C 14.7 °C 1018.5 hPa NW 6.4 km/h 20.9 km/h 88 % 0.0 mm
00:22 16.7 °C 14.9 °C 1018.5 hPa NNW 4.8 km/h 19.3 km/h 89 % 0.0 mm
00:32 16.6 °C 14.8 °C 1018.5 hPa NW 1.6 km/h 19.3 km/h 89 % 0.0 mm
00:42 16.4 °C 14.6 °C 1018.5 hPa NW 6.4 km/h 14.5 km/h 89 % 0.0 mm
00:47 16.3 °C 14.7 °C 1018.5 hPa West 6.4 km/h 14.5 km/h 90 % 0.0 mm
00:52 16.2 °C 14.6 °C 1018.5 hPa NW 4.8 km/h 14.5 km/h 90 % 0.0 mm
00:57 16.1 °C 14.5 °C 1018.5 hPa WNW 4.8 km/h 14.5 km/h 90 % 0.0 mm
01:02 16.1 °C 14.6 °C 1018.5 hPa NW 9.7 km/h 9.7 km/h 91 % 0.0 mm
01:07 16.1 °C 14.6 °C 1018.5 hPa NNW 6.4 km/h 14.5 km/h 91 % 0.0 mm
01:12 16.1 °C 14.6 °C 1018.5 hPa NW 4.8 km/h 14.5 km/h 91 % 0.0 mm
01:17 16.0 °C 14.5 °C 1018.5 hPa West 1.6 km/h 14.5 km/h 91 % 0.0 mm
01:22 16.0 °C 14.5 °C 1018.5 hPa West 4.8 km/h 14.5 km/h 91 % 0.0 mm
01:32 16.1 °C 14.6 °C 1018.5 hPa NNW 4.8 km/h 17.7 km/h 91 % 0.0 mm
01:37 16.1 °C 14.6 °C 1018.5 hPa NW 6.4 km/h 17.7 km/h 91 % 0.0 mm
01:47 16.0 °C 14.5 °C 1018.5 hPa NNW 4.8 km/h 16.1 km/h 91 % 0.0 mm
01:52 15.9 °C 14.4 °C 1018.5 hPa NNW 8.0 km/h 16.1 km/h 91 % 0.0 mm
01:57 15.9 °C 14.4 °C 1018.5 hPa West 8.0 km/h 16.1 km/h 91 % 0.0 mm
02:02 15.8 °C 14.3 °C 1018.5 hPa WNW 3.2 km/h 14.5 km/h 91 % 0.0 mm
02:07 15.9 °C 14.4 °C 1018.5 hPa NW 11.3 km/h 16.1 km/h 91 % 0.0 mm
02:12 15.9 °C 14.4 °C 1018.8 hPa NNW 6.4 km/h 16.1 km/h 91 % 0.0 mm
02:17 15.9 °C 14.4 °C 1018.8 hPa NNW 3.2 km/h 17.7 km/h 91 % 0.0 mm
02:22 15.8 °C 14.3 °C 1018.8 hPa NNW 6.4 km/h 17.7 km/h 91 % 0.0 mm
02:27 15.8 °C 14.3 °C 1018.8 hPa NW 4.8 km/h 20.9 km/h 91 % 0.0 mm
02:37 15.7 °C 14.2 °C 1018.8 hPa NW 3.2 km/h 20.9 km/h 91 % 0.0 mm
02:42 15.7 °C 14.2 °C 1018.8 hPa WNW 3.2 km/h 16.1 km/h 91 % 0.0 mm
02:47 15.6 °C 14.1 °C 1018.8 hPa SW 3.2 km/h 16.1 km/h 91 % 0.0 mm
02:52 15.6 °C 14.1 °C 1018.8 hPa NNW 3.2 km/h 16.1 km/h 91 % 0.0 mm
02:57 15.4 °C 13.9 °C 1018.8 hPa NNW 4.8 km/h 16.1 km/h 91 % 0.0 mm
03:02 15.4 °C 13.9 °C 1018.8 hPa NW 4.8 km/h 16.1 km/h 91 % 0.0 mm
03:07 15.3 °C 13.8 °C 1018.8 hPa NW 3.2 km/h 16.1 km/h 91 % 0.0 mm
03:17 15.2 °C 13.7 °C 1018.8 hPa NW 3.2 km/h 9.7 km/h 91 % 0.0 mm
03:22 15.1 °C 13.6 °C 1018.8 hPa NNW 8.0 km/h 9.7 km/h 91 % 0.0 mm
03:32 15.1 °C 13.8 °C 1018.8 hPa NNW 6.4 km/h 12.9 km/h 92 % 0.0 mm
03:37 15.1 °C 13.6 °C 1018.8 hPa North 3.2 km/h 12.9 km/h 91 % 0.0 mm
03:42 15.0 °C 13.7 °C 1018.8 hPa NW 3.2 km/h 12.9 km/h 92 % 0.0 mm
03:47 15.1 °C 13.8 °C 1018.8 hPa NNE 4.8 km/h 12.9 km/h 92 % 0.0 mm
03:52 15.1 °C 13.6 °C 1018.8 hPa NNE 4.8 km/h 12.9 km/h 91 % 0.0 mm
03:57 15.1 °C 13.8 °C 1018.8 hPa NW 4.8 km/h 12.9 km/h 92 % 0.0 mm
04:02 15.2 °C 13.7 °C 1018.8 hPa NNW 6.4 km/h 12.9 km/h 91 % 0.0 mm
04:07 15.2 °C 13.7 °C 1018.8 hPa NNW 1.6 km/h 14.5 km/h 91 % 0.0 mm
04:12 15.2 °C 13.7 °C 1018.8 hPa WNW 6.4 km/h 14.5 km/h 91 % 0.0 mm
04:17 15.2 °C 13.7 °C 1018.8 hPa NW 4.8 km/h 12.9 km/h 91 % 0.0 mm
04:22 15.2 °C 13.7 °C 1018.8 hPa NNW 6.4 km/h 12.9 km/h 91 % 0.0 mm
04:27 15.2 °C 13.7 °C 1018.8 hPa North 6.4 km/h 12.9 km/h 91 % 0.0 mm
04:32 15.1 °C 13.6 °C 1018.8 hPa NNW 4.8 km/h 12.9 km/h 91 % 0.0 mm
04:37 15.1 °C 13.6 °C 1018.8 hPa North 4.8 km/h 12.9 km/h 91 % 0.0 mm
04:42 15.1 °C 13.6 °C 1018.8 hPa NW 4.8 km/h 9.7 km/h 91 % 0.0 mm
04:47 15.0 °C 13.5 °C 1018.8 hPa NNW 4.8 km/h 9.7 km/h 91 % 0.0 mm
04:52 14.9 °C 13.4 °C 1018.8 hPa NNE 3.2 km/h 9.7 km/h 91 % 0.0 mm
04:57 14.9 °C 13.4 °C 1018.8 hPa NNW 8.0 km/h 12.9 km/h 91 % 0.0 mm
05:02 14.9 °C 13.4 °C 1018.8 hPa North 6.4 km/h 12.9 km/h 91 % 0.0 mm
05:12 14.8 °C 13.3 °C 1018.8 hPa NE 6.4 km/h 17.7 km/h 91 % 0.0 mm
05:17 14.8 °C 13.5 °C 1018.8 hPa NW 4.8 km/h 17.7 km/h 92 % 0.0 mm
05:22 14.8 °C 13.5 °C 1018.8 hPa NNW 4.8 km/h 17.7 km/h 92 % 0.0 mm
05:32 14.8 °C 13.5 °C 1018.8 hPa NNE 14.5 km/h 14.5 km/h 92 % 0.0 mm
05:52 14.7 °C 13.4 °C 1018.8 hPa NNE 8.0 km/h 19.3 km/h 92 % 0.0 mm
06:02 14.6 °C 13.3 °C 1018.8 hPa NNW 3.2 km/h 19.3 km/h 92 % 0.0 mm
06:12 14.6 °C 13.5 °C 1018.8 hPa NNW 9.7 km/h 16.1 km/h 93 % 0.0 mm
06:17 14.6 °C 13.5 °C 1019.2 hPa NNW 6.4 km/h 17.7 km/h 93 % 0.0 mm
06:22 14.6 °C 13.5 °C 1019.2 hPa NNW 4.8 km/h 17.7 km/h 93 % 0.0 mm
06:27 14.6 °C 13.5 °C 1019.2 hPa NNE 9.7 km/h 16.1 km/h 93 % 0.0 mm
06:32 14.5 °C 13.4 °C 1019.2 hPa NNW 4.8 km/h 16.1 km/h 93 % 0.0 mm
06:42 14.5 °C 13.4 °C 1019.2 hPa NNW 6.4 km/h 16.1 km/h 93 % 0.0 mm
06:47 14.4 °C 13.3 °C 1019.5 hPa NNE 4.8 km/h 14.5 km/h 93 % 0.0 mm
06:52 14.4 °C 13.3 °C 1019.5 hPa NNW 4.8 km/h 14.5 km/h 93 % 0.0 mm
06:57 14.4 °C 13.3 °C 1019.5 hPa NNW 6.4 km/h 17.7 km/h 93 % 0.0 mm
07:02 14.4 °C 13.3 °C 1019.5 hPa NW 9.7 km/h 17.7 km/h 93 % 0.0 mm
07:12 14.5 °C 13.4 °C 1019.5 hPa NNE 6.4 km/h 16.1 km/h 93 % 0.0 mm
07:17 14.5 °C 13.4 °C 1019.5 hPa NNW 6.4 km/h 16.1 km/h 93 % 0.0 mm
07:22 14.5 °C 13.4 °C 1019.5 hPa North 1.6 km/h 16.1 km/h 93 % 0.0 mm
07:32 14.4 °C 13.3 °C 1019.5 hPa NNW 3.2 km/h 11.3 km/h 93 % 0.0 mm
07:42 14.4 °C 13.3 °C 1019.5 hPa NNW 3.2 km/h 11.3 km/h 93 % 0.0 mm
07:52 14.3 °C 13.3 °C 1019.5 hPa NNW 9.7 km/h 9.7 km/h 94 % 0.0 mm
07:57 14.3 °C 13.3 °C 1019.5 hPa NW 4.8 km/h 9.7 km/h 94 % 0.0 mm
08:02 14.3 °C 13.3 °C 1019.9 hPa NW 4.8 km/h 9.7 km/h 94 % 0.0 mm
08:12 14.3 °C 13.3 °C 1019.5 hPa West 6.4 km/h 12.9 km/h 94 % 0.0 mm
08:17 14.3 °C 13.3 °C 1019.9 hPa NNW 3.2 km/h 11.3 km/h 94 % 0.0 mm
08:22 14.2 °C 13.2 °C 1019.9 hPa North 8.0 km/h 11.3 km/h 94 % 0.0 mm
08:32 14.2 °C 13.2 °C 1019.5 hPa NNW 4.8 km/h 12.9 km/h 94 % 0.0 mm
08:37 14.2 °C 13.2 °C 1019.5 hPa NW 8.0 km/h 12.9 km/h 94 % 0.0 mm
08:42 14.2 °C 13.2 °C 1019.5 hPa North 4.8 km/h 12.9 km/h 94 % 0.0 mm
08:52 14.3 °C 13.5 °C 1019.5 hPa NW 6.4 km/h 14.5 km/h 95 % 0.0 mm
08:57 14.4 °C 13.4 °C 1019.5 hPa NNE 4.8 km/h 12.9 km/h 94 % 0.0 mm
09:02 14.4 °C 13.4 °C 1019.9 hPa NNW 1.6 km/h 12.9 km/h 94 % 0.0 mm
09:17 14.5 °C 13.5 °C 1019.9 hPa West 3.2 km/h 14.5 km/h 94 % 0.0 mm
09:22 14.4 °C 13.4 °C 1019.9 hPa NW 3.2 km/h 14.5 km/h 94 % 0.0 mm
09:32 14.6 °C 13.6 °C 1019.9 hPa NNW 3.2 km/h 11.3 km/h 94 % 0.0 mm
09:42 14.7 °C 13.6 °C 1019.9 hPa NE 1.6 km/h 11.3 km/h 93 % 0.0 mm
09:47 14.8 °C 13.7 °C 1019.9 hPa WNW 4.8 km/h 11.3 km/h 93 % 0.0 mm
09:52 14.9 °C 13.6 °C 1019.9 hPa NNW 6.4 km/h 11.3 km/h 92 % 0.0 mm
09:57 15.0 °C 13.7 °C 1019.9 hPa NNW 4.8 km/h 11.3 km/h 92 % 0.0 mm
10:02 15.2 °C 13.9 °C 1019.9 hPa North 4.8 km/h 11.3 km/h 92 % 0.0 mm
10:12 15.3 °C 13.8 °C 1019.9 hPa North 1.6 km/h 11.3 km/h 91 % 0.0 mm
10:17 15.4 °C 13.9 °C 1019.9 hPa NNW 3.2 km/h 12.9 km/h 91 % 0.0 mm
10:22 15.6 °C 14.0 °C 1020.2 hPa North 12.9 km/h 12.9 km/h 90 % 0.0 mm
10:32 15.7 °C 13.9 °C 1020.2 hPa NNE 8.0 km/h 16.1 km/h 89 % 0.0 mm
10:42 16.0 °C 14.0 °C 1020.2 hPa NNW 1.6 km/h 16.1 km/h 88 % 0.0 mm
10:47 15.9 °C 13.6 °C 1020.2 hPa WNW 6.4 km/h 12.9 km/h 86 % 0.0 mm
10:52 16.1 °C 13.9 °C 1020.2 hPa WNW 1.6 km/h 12.9 km/h 87 % 0.0 mm
11:02 16.2 °C 13.9 °C 1020.2 hPa WNW 1.6 km/h 12.9 km/h 86 % 0.0 mm
11:07 16.2 °C 13.9 °C 1020.2 hPa NW 4.8 km/h 14.5 km/h 86 % 0.0 mm
11:12 16.2 °C 13.9 °C 1020.2 hPa WNW 1.6 km/h 14.5 km/h 86 % 0.0 mm
11:17 16.3 °C 14.0 °C 1020.2 hPa NW 8.0 km/h 12.9 km/h 86 % 0.0 mm
11:22 16.2 °C 13.7 °C 1020.2 hPa West 6.4 km/h 14.5 km/h 85 % 0.0 mm
11:32 16.3 °C 13.8 °C 1020.2 hPa WNW 6.4 km/h 14.5 km/h 85 % 0.0 mm
11:42 16.6 °C 13.7 °C 1020.2 hPa NW 4.8 km/h 12.9 km/h 83 % 0.0 mm
11:47 16.8 °C 13.9 °C 1020.2 hPa WNW 8.0 km/h 12.9 km/h 83 % 0.0 mm
11:52 16.9 °C 13.6 °C 1020.5 hPa North 1.6 km/h 16.1 km/h 81 % 0.0 mm
11:57 16.9 °C 13.6 °C 1020.2 hPa NNW 9.7 km/h 16.1 km/h 81 % 0.0 mm
12:02 17.0 °C 13.7 °C 1020.2 hPa NNW 6.4 km/h 16.1 km/h 81 % 0.0 mm
12:07 17.0 °C 13.5 °C 1020.2 hPa NNW 6.4 km/h 12.9 km/h 80 % 0.0 mm
12:12 17.0 °C 13.7 °C 1020.2 hPa NW 4.8 km/h 12.9 km/h 81 % 0.0 mm
12:17 17.0 °C 13.5 °C 1020.2 hPa WNW 4.8 km/h 12.9 km/h 80 % 0.0 mm
12:22 17.0 °C 13.5 °C 1020.2 hPa NE 4.8 km/h 12.9 km/h 80 % 0.0 mm
12:27 17.2 °C 13.7 °C 1020.2 hPa NNW 1.6 km/h 12.9 km/h 80 % 0.0 mm
12:32 17.3 °C 13.6 °C 1020.2 hPa NW 4.8 km/h 14.5 km/h 79 % 0.0 mm
12:42 17.3 °C 13.6 °C 1020.2 hPa NW 11.3 km/h 14.5 km/h 79 % 0.0 mm
12:52 17.4 °C 13.7 °C 1019.9 hPa WNW 1.6 km/h 14.5 km/h 79 % 0.0 mm
12:57 17.7 °C 13.6 °C 1019.9 hPa WNW 1.6 km/h 12.9 km/h 77 % 0.0 mm
13:02 17.8 °C 13.7 °C 1019.9 hPa NW 4.8 km/h 12.9 km/h 77 % 0.0 mm
13:07 17.9 °C 13.8 °C 1019.9 hPa NNW 6.4 km/h 16.1 km/h 77 % 0.0 mm
13:12 18.2 °C 14.1 °C 1019.9 hPa WNW 9.7 km/h 16.1 km/h 77 % 0.0 mm
13:17 18.2 °C 13.5 °C 1019.9 hPa NNW 3.2 km/h 14.5 km/h 74 % 0.0 mm
13:22 18.5 °C 14.0 °C 1019.9 hPa NNE 11.3 km/h 14.5 km/h 75 % 0.0 mm
13:32 18.6 °C 13.9 °C 1019.9 hPa NW 4.8 km/h 14.5 km/h 74 % 0.0 mm
13:37 18.8 °C 13.9 °C 1019.9 hPa WNW 12.9 km/h 16.1 km/h 73 % 0.0 mm
13:42 18.8 °C 13.6 °C 1019.5 hPa West 9.7 km/h 16.1 km/h 72 % 0.0 mm
13:47 19.1 °C 13.5 °C 1019.9 hPa NNW 3.2 km/h 17.7 km/h 70 % 0.0 mm
13:52 19.2 °C 13.6 °C 1019.9 hPa NW 8.0 km/h 17.7 km/h 70 % 0.0 mm
13:57 19.1 °C 13.5 °C 1019.5 hPa NE 14.5 km/h 17.7 km/h 70 % 0.0 mm
14:02 19.0 °C 13.6 °C 1019.5 hPa NNW 6.4 km/h 17.7 km/h 71 % 0.0 mm
14:12 19.0 °C 13.0 °C 1019.5 hPa NNW 9.7 km/h 17.7 km/h 68 % 0.0 mm
14:17 19.0 °C 13.2 °C 1019.5 hPa NNW 8.0 km/h 17.7 km/h 69 % 0.0 mm
14:22 19.0 °C 13.4 °C 1019.5 hPa NW 4.8 km/h 17.7 km/h 70 % 0.0 mm
14:27 19.1 °C 13.3 °C 1019.5 hPa NNW 4.8 km/h 17.7 km/h 69 % 0.0 mm
14:32 19.2 °C 13.1 °C 1019.5 hPa NNW 8.0 km/h 17.7 km/h 68 % 0.0 mm
14:37 19.2 °C 13.4 °C 1019.5 hPa North 3.2 km/h 16.1 km/h 69 % 0.0 mm
14:42 19.3 °C 13.5 °C 1019.2 hPa NNW 9.7 km/h 16.1 km/h 69 % 0.0 mm
14:47 19.3 °C 13.5 °C 1019.2 hPa NNE 8.0 km/h 16.1 km/h 69 % 0.0 mm
14:52 19.2 °C 13.4 °C 1019.2 hPa North 9.7 km/h 16.1 km/h 69 % 0.0 mm
14:57 19.1 °C 13.5 °C 1019.2 hPa NNW 3.2 km/h 17.7 km/h 70 % 0.0 mm
15:02 19.0 °C 13.4 °C 1019.2 hPa North 6.4 km/h 17.7 km/h 70 % 0.0 mm
15:12 19.3 °C 13.7 °C 1019.2 hPa NE 3.2 km/h 16.1 km/h 70 % 0.0 mm
15:17 19.6 °C 13.5 °C 1019.2 hPa NNW 4.8 km/h 16.1 km/h 68 % 0.0 mm
15:22 19.6 °C 13.1 °C 1019.2 hPa North 6.4 km/h 16.1 km/h 66 % 0.0 mm
15:27 19.6 °C 13.3 °C 1019.2 hPa NW 3.2 km/h 12.9 km/h 67 % 0.0 mm
15:32 19.4 °C 13.3 °C 1019.2 hPa NNE 11.3 km/h 12.9 km/h 68 % 0.0 mm
15:37 19.1 °C 13.7 °C 1019.2 hPa ENE 8.0 km/h 16.1 km/h 71 % 0.0 mm
15:42 18.8 °C 13.6 °C 1019.2 hPa NE 11.3 km/h 16.1 km/h 72 % 0.0 mm
15:47 18.7 °C 13.8 °C 1019.2 hPa NNE 9.7 km/h 16.1 km/h 73 % 0.0 mm
15:52 18.6 °C 13.7 °C 1019.2 hPa NE 4.8 km/h 17.7 km/h 73 % 0.0 mm
15:57 18.7 °C 13.8 °C 1019.2 hPa NNW 9.7 km/h 17.7 km/h 73 % 0.0 mm
16:02 18.7 °C 13.5 °C 1019.2 hPa NNW 6.4 km/h 17.7 km/h 72 % 0.0 mm
16:07 18.7 °C 13.8 °C 1019.2 hPa NE 9.7 km/h 19.3 km/h 73 % 0.0 mm
16:12 18.8 °C 13.9 °C 1019.2 hPa NNE 8.0 km/h 14.5 km/h 73 % 0.0 mm
16:17 18.8 °C 13.9 °C 1019.2 hPa NE 4.8 km/h 14.5 km/h 73 % 0.0 mm
16:22 18.8 °C 13.6 °C 1019.2 hPa NNW 8.0 km/h 14.5 km/h 72 % 0.0 mm
16:27 18.8 °C 13.9 °C 1019.2 hPa NE 11.3 km/h 12.9 km/h 73 % 0.0 mm
16:32 18.7 °C 14.0 °C 1019.2 hPa NE 3.2 km/h 12.9 km/h 74 % 0.0 mm
16:37 18.5 °C 14.0 °C 1019.2 hPa NW 8.0 km/h 14.5 km/h 75 % 0.0 mm
16:42 17.9 °C 14.0 °C 1019.2 hPa NW 6.4 km/h 14.5 km/h 78 % 0.0 mm
16:47 17.4 °C 14.1 °C 1018.8 hPa NNE 1.6 km/h 14.5 km/h 81 % 0.5 mm
16:52 17.2 °C 14.3 °C 1018.8 hPa Calm   12.9 km/h 83 % 0.5 mm
17:02 17.2 °C 14.5 °C 1018.8 hPa NNW 4.8 km/h 9.7 km/h 84 % 0.5 mm
17:12 17.4 °C 13.9 °C 1018.8 hPa NNE 3.2 km/h 11.3 km/h 80 % 0.5 mm
17:22 17.3 °C 13.8 °C 1018.8 hPa North 3.2 km/h 11.3 km/h 80 % 0.5 mm
17:27 17.3 °C 13.8 °C 1018.8 hPa Calm   12.9 km/h 80 % 0.5 mm
17:32 17.3 °C 13.8 °C 1018.8 hPa West 1.6 km/h 12.9 km/h 80 % 0.5 mm
17:37 17.3 °C 13.8 °C 1018.8 hPa Calm   8.0 km/h 80 % 0.5 mm
17:42 17.3 °C 14.0 °C 1018.8 hPa North 1.6 km/h 6.4 km/h 81 % 0.0 mm
17:47 17.2 °C 13.9 °C 1018.8 hPa Calm   3.2 km/h 81 % 0.0 mm
17:52 17.2 °C 13.9 °C 1018.8 hPa Calm   3.2 km/h 81 % 0.0 mm
17:57 17.3 °C 14.2 °C 1018.8 hPa Calm   3.2 km/h 82 % 0.0 mm
18:07 17.3 °C 14.2 °C 1018.8 hPa Calm   1.6 km/h 82 % 0.0 mm
18:12 17.4 °C 14.3 °C 1018.8 hPa Calm   1.6 km/h 82 % 0.0 mm
18:17 17.4 °C 14.3 °C 1018.8 hPa Calm   1.6 km/h 82 % 0.0 mm
18:22 17.5 °C 14.2 °C 1018.8 hPa West 1.6 km/h 3.2 km/h 81 % 0.0 mm
18:27 17.5 °C 13.8 °C 1018.8 hPa North 3.2 km/h 3.2 km/h 79 % 0.0 mm
18:32 17.4 °C 13.9 °C 1018.8 hPa NNW 9.7 km/h 12.9 km/h 80 % 0.0 mm
18:37 17.2 °C 13.7 °C 1018.8 hPa NW 8.0 km/h 12.9 km/h 80 % 0.0 mm
18:42 17.1 °C 13.4 °C 1018.8 hPa WNW 4.8 km/h 12.9 km/h 79 % 0.0 mm
18:47 16.9 °C 13.4 °C 1018.8 hPa NW 3.2 km/h 12.9 km/h 80 % 0.0 mm
18:52 16.8 °C 13.5 °C 1018.8 hPa West 1.6 km/h 11.3 km/h 81 % 0.0 mm
18:57 16.7 °C 13.8 °C 1018.8 hPa WNW 4.8 km/h 9.7 km/h 83 % 0.0 mm
19:02 16.6 °C 13.7 °C 1018.8 hPa WNW 6.4 km/h 9.7 km/h 83 % 0.0 mm
19:12 16.5 °C 13.6 °C 1018.5 hPa WNW 1.6 km/h 9.7 km/h 83 % 0.0 mm
19:17 16.4 °C 13.5 °C 1018.8 hPa NW 3.2 km/h 8.0 km/h 83 % 0.0 mm
19:27 16.4 °C 13.7 °C 1018.5 hPa Calm   8.0 km/h 84 % 0.0 mm
19:32 16.3 °C 13.6 °C 1018.8 hPa Calm   8.0 km/h 84 % 0.0 mm
19:42 16.3 °C 13.6 °C 1018.8 hPa WNW 1.6 km/h 4.8 km/h 84 % 0.0 mm
19:52 16.2 °C 13.5 °C 1018.5 hPa NW 1.6 km/h 8.0 km/h 84 % 0.0 mm
20:02 16.2 °C 13.7 °C 1018.5 hPa NW 1.6 km/h 8.0 km/h 85 % 0.0 mm
20:12 16.1 °C 13.6 °C 1018.5 hPa NW 3.2 km/h 8.0 km/h 85 % 0.0 mm
20:17 16.1 °C 13.6 °C 1018.5 hPa NNW 8.0 km/h 8.0 km/h 85 % 0.0 mm
20:22 16.1 °C 13.6 °C 1018.5 hPa Calm   8.0 km/h 85 % 0.0 mm
20:32 16.1 °C 13.6 °C 1018.5 hPa NW 8.0 km/h 8.0 km/h 85 % 0.0 mm
20:37 16.1 °C 13.6 °C 1018.5 hPa NNW 4.8 km/h 9.7 km/h 85 % 0.0 mm
20:42 16.1 °C 13.6 °C 1018.8 hPa NNW 4.8 km/h 9.7 km/h 85 % 0.0 mm
20:47 16.1 °C 13.6 °C 1018.8 hPa NW 4.8 km/h 9.7 km/h 85 % 0.0 mm
20:52 16.1 °C 13.6 °C 1018.5 hPa NNW 1.6 km/h 9.7 km/h 85 % 0.0 mm
20:57 16.1 °C 13.6 °C 1018.8 hPa NNW 1.6 km/h 9.7 km/h 85 % 0.0 mm
21:02 16.0 °C 13.5 °C 1018.8 hPa NNW 3.2 km/h 9.7 km/h 85 % 0.0 mm
21:12 15.9 °C 13.6 °C 1018.8 hPa NNW 3.2 km/h 4.8 km/h 86 % 0.0 mm
21:17 15.8 °C 13.5 °C 1018.8 hPa North 4.8 km/h 6.4 km/h 86 % 0.0 mm
21:22 15.8 °C 13.5 °C 1018.8 hPa WNW 3.2 km/h 8.0 km/h 86 % 0.0 mm
21:32 15.8 °C 13.5 °C 1018.8 hPa Calm   8.0 km/h 86 % 0.0 mm
21:42 15.7 °C 13.5 °C 1018.8 hPa NNW 4.8 km/h 6.4 km/h 87 % 0.0 mm
21:47 15.7 °C 13.5 °C 1018.8 hPa NNW 3.2 km/h 6.4 km/h 87 % 0.0 mm
21:52 15.7 °C 13.5 °C 1018.8 hPa NNW 3.2 km/h 6.4 km/h 87 % 0.0 mm
22:02 15.7 °C 13.5 °C 1018.8 hPa NE 6.4 km/h 6.4 km/h 87 % 0.0 mm
22:12 15.6 °C 13.6 °C 1018.8 hPa NNW 3.2 km/h 8.0 km/h 88 % 0.0 mm
22:17 15.6 °C 13.6 °C 1018.8 hPa NW 1.6 km/h 8.0 km/h 88 % 0.0 mm
22:22 15.5 °C 13.5 °C 1018.8 hPa NNW 1.6 km/h 6.4 km/h 88 % 0.0 mm
22:32 15.5 °C 13.7 °C 1018.5 hPa North 4.8 km/h 8.0 km/h 89 % 0.0 mm
22:37 15.6 °C 13.8 °C 1018.5 hPa North 3.2 km/h 8.0 km/h 89 % 0.0 mm
22:42 15.6 °C 13.8 °C 1018.5 hPa North 4.8 km/h 8.0 km/h 89 % 0.0 mm
22:47 15.5 °C 13.7 °C 1018.5 hPa North 1.6 km/h 8.0 km/h 89 % 0.0 mm
22:52 15.4 °C 13.6 °C 1018.5 hPa NNW 3.2 km/h 8.0 km/h 89 % 0.0 mm
22:57 15.4 °C 13.6 °C 1018.5 hPa North 3.2 km/h 6.4 km/h 89 % 0.0 mm
23:02 15.5 °C 13.7 °C 1018.5 hPa North 4.8 km/h 6.4 km/h 89 % 0.0 mm
23:12 15.6 °C 13.8 °C 1018.5 hPa North 6.4 km/h 8.0 km/h 89 % 0.0 mm
23:17 15.6 °C 13.8 °C 1018.5 hPa North 1.6 km/h 8.0 km/h 89 % 0.0 mm
23:32 15.6 °C 13.6 °C 1018.5 hPa NNW 3.2 km/h 8.0 km/h 88 % 0.0 mm
23:42 15.6 °C 13.6 °C 1018.5 hPa NW 4.8 km/h 8.0 km/h 88 % 0.0 mm
23:57 15.5 °C 13.5 °C 1018.2 hPa NNW 3.2 km/h 6.4 km/h 88 % 0.0 mm
Meteo18
Compliments of Weather Underground - 4 mb

Script developed by  Jim McMurry - jmcmurry@mwt.net Adapted for the template by  Wim van der Kuil - Leuven-Template.eu

You find our weather info also at:

European Weather Network

Weather Underground

Equipment we use:

Weather-station
Davis Vue

Weather-program
Meteohub

Weather-server
Raspberry PI 2 B+

Provider
1 and 1

Davis Vue

Meteohub

Raspberry PI 2 B+

1 and 1